sensor_id;sensor_type;location;lat;lon;timestamp;P1;durP1;ratioP1;P2;durP2;ratioP2
50709;SDS011;37033;49.994;21.992;2023-10-31T00:01:31;3.80;;;2.30;;
50709;SDS011;37033;49.994;21.992;2023-10-31T00:04:02;3.60;;;2.00;;
50709;SDS011;37033;49.994;21.992;2023-10-31T00:06:33;4.50;;;2.60;;
50709;SDS011;37033;49.994;21.992;2023-10-31T00:09:04;7.40;;;2.60;;
50709;SDS011;37033;49.994;21.992;2023-10-31T00:11:35;5.50;;;2.50;;
50709;SDS011;37033;49.994;21.992;2023-10-31T00:14:06;4.50;;;2.80;;
50709;SDS011;37033;49.994;21.992;2023-10-31T00:16:37;6.60;;;2.80;;
50709;SDS011;37033;49.994;21.992;2023-10-31T00:19:09;3.20;;;2.10;;
50709;SDS011;37033;49.994;21.992;2023-10-31T00:21:39;3.40;;;2.10;;
50709;SDS011;37033;49.994;21.992;2023-10-31T00:24:10;4.10;;;2.30;;
50709;SDS011;37033;49.994;21.992;2023-10-31T00:26:41;7.40;;;2.20;;
50709;SDS011;37033;49.994;21.992;2023-10-31T00:29:12;3.80;;;2.40;;
50709;SDS011;37033;49.994;21.992;2023-10-31T00:31:43;4.20;;;2.40;;
50709;SDS011;37033;49.994;21.992;2023-10-31T00:34:14;5.70;;;2.60;;
50709;SDS011;37033;49.994;21.992;2023-10-31T00:36:45;4.50;;;2.30;;
50709;SDS011;37033;49.994;21.992;2023-10-31T00:39:16;4.50;;;2.30;;
50709;SDS011;37033;49.994;21.992;2023-10-31T00:41:47;5.40;;;1.90;;
50709;SDS011;37033;49.994;21.992;2023-10-31T00:44:18;9.70;;;2.80;;
50709;SDS011;37033;49.994;21.992;2023-10-31T00:46:49;2.70;;;2.10;;
50709;SDS011;37033;49.994;21.992;2023-10-31T00:49:20;4.30;;;2.20;;
50709;SDS011;37033;49.994;21.992;2023-10-31T00:51:51;4.20;;;1.90;;
50709;SDS011;37033;49.994;21.992;2023-10-31T00:54:22;3.60;;;1.90;;
50709;SDS011;37033;49.994;21.992;2023-10-31T00:56:53;4.70;;;2.00;;
50709;SDS011;37033;49.994;21.992;2023-10-31T00:59:24;6.10;;;2.30;;
50709;SDS011;37033;49.994;21.992;2023-10-31T01:01:55;6.80;;;2.30;;
50709;SDS011;37033;49.994;21.992;2023-10-31T01:04:26;4.00;;;1.80;;
50709;SDS011;37033;49.994;21.992;2023-10-31T01:06:57;5.10;;;1.90;;
50709;SDS011;37033;49.994;21.992;2023-10-31T01:09:28;3.20;;;1.70;;
50709;SDS011;37033;49.994;21.992;2023-10-31T01:11:59;3.30;;;2.00;;
50709;SDS011;37033;49.994;21.992;2023-10-31T01:14:30;3.20;;;2.00;;
50709;SDS011;37033;49.994;21.992;2023-10-31T01:17:01;5.40;;;2.10;;
50709;SDS011;37033;49.994;21.992;2023-10-31T01:19:31;5.90;;;2.00;;
50709;SDS011;37033;49.994;21.992;2023-10-31T01:22:03;6.90;;;2.10;;
50709;SDS011;37033;49.994;21.992;2023-10-31T01:24:35;7.00;;;2.00;;
50709;SDS011;37033;49.994;21.992;2023-10-31T01:27:06;5.10;;;1.60;;
50709;SDS011;37033;49.994;21.992;2023-10-31T01:29:36;6.30;;;1.90;;
50709;SDS011;37033;49.994;21.992;2023-10-31T01:32:07;7.80;;;1.70;;
50709;SDS011;37033;49.994;21.992;2023-10-31T01:34:38;4.40;;;1.70;;
50709;SDS011;37033;49.994;21.992;2023-10-31T01:37:09;3.60;;;1.90;;
50709;SDS011;37033;49.994;21.992;2023-10-31T01:39:41;3.80;;;1.10;;
50709;SDS011;37033;49.994;21.992;2023-10-31T01:42:14;6.80;;;1.80;;
50709;SDS011;37033;49.994;21.992;2023-10-31T01:44:46;3.60;;;1.90;;
50709;SDS011;37033;49.994;21.992;2023-10-31T01:47:17;5.50;;;1.60;;
50709;SDS011;37033;49.994;21.992;2023-10-31T01:49:47;6.00;;;1.70;;
50709;SDS011;37033;49.994;21.992;2023-10-31T01:52:19;4.70;;;2.00;;
50709;SDS011;37033;49.994;21.992;2023-10-31T01:54:50;2.80;;;1.60;;
50709;SDS011;37033;49.994;21.992;2023-10-31T01:57:21;3.80;;;1.80;;
50709;SDS011;37033;49.994;21.992;2023-10-31T01:59:53;6.00;;;1.40;;
50709;SDS011;37033;49.994;21.992;2023-10-31T02:02:24;3.10;;;1.60;;
50709;SDS011;37033;49.994;21.992;2023-10-31T02:04:56;3.20;;;1.60;;
50709;SDS011;37033;49.994;21.992;2023-10-31T02:07:28;3.10;;;1.70;;
50709;SDS011;37033;49.994;21.992;2023-10-31T02:09:59;3.70;;;1.50;;
50709;SDS011;37033;49.994;21.992;2023-10-31T02:12:33;3.60;;;1.40;;
50709;SDS011;37033;49.994;21.992;2023-10-31T02:15:06;3.20;;;1.30;;
50709;SDS011;37033;49.994;21.992;2023-10-31T02:17:38;6.50;;;1.50;;
50709;SDS011;37033;49.994;21.992;2023-10-31T02:20:09;2.60;;;1.50;;
50709;SDS011;37033;49.994;21.992;2023-10-31T02:22:41;3.20;;;1.10;;
50709;SDS011;37033;49.994;21.992;2023-10-31T02:25:18;4.60;;;1.50;;
50709;SDS011;37033;49.994;21.992;2023-10-31T02:27:49;1.80;;;1.20;;
50709;SDS011;37033;49.994;21.992;2023-10-31T02:30:19;6.40;;;1.40;;
50709;SDS011;37033;49.994;21.992;2023-10-31T02:32:51;4.40;;;1.30;;
50709;SDS011;37033;49.994;21.992;2023-10-31T02:35:21;2.30;;;1.20;;
50709;SDS011;37033;49.994;21.992;2023-10-31T02:37:52;3.00;;;1.00;;
50709;SDS011;37033;49.994;21.992;2023-10-31T02:40:23;1.70;;;1.00;;
50709;SDS011;37033;49.994;21.992;2023-10-31T02:42:54;3.30;;;1.20;;
50709;SDS011;37033;49.994;21.992;2023-10-31T02:45:25;2.80;;;1.20;;
50709;SDS011;37033;49.994;21.992;2023-10-31T02:47:56;4.20;;;2.10;;
50709;SDS011;37033;49.994;21.992;2023-10-31T02:50:27;2.20;;;1.70;;
50709;SDS011;37033;49.994;21.992;2023-10-31T02:52:58;3.70;;;1.40;;
50709;SDS011;37033;49.994;21.992;2023-10-31T02:55:28;2.10;;;1.10;;
50709;SDS011;37033;49.994;21.992;2023-10-31T02:57:59;2.10;;;0.90;;
50709;SDS011;37033;49.994;21.992;2023-10-31T03:00:31;3.20;;;1.20;;
50709;SDS011;37033;49.994;21.992;2023-10-31T03:03:02;2.00;;;1.20;;
50709;SDS011;37033;49.994;21.992;2023-10-31T03:05:32;2.10;;;1.30;;
50709;SDS011;37033;49.994;21.992;2023-10-31T03:08:03;3.40;;;1.40;;
50709;SDS011;37033;49.994;21.992;2023-10-31T03:10:36;1.80;;;1.00;;
50709;SDS011;37033;49.994;21.992;2023-10-31T03:13:07;2.20;;;1.10;;
50709;SDS011;37033;49.994;21.992;2023-10-31T03:15:38;3.50;;;1.20;;
50709;SDS011;37033;49.994;21.992;2023-10-31T03:18:09;3.70;;;1.50;;
50709;SDS011;37033;49.994;21.992;2023-10-31T03:20:43;3.90;;;0.90;;
50709;SDS011;37033;49.994;21.992;2023-10-31T03:23:14;2.40;;;1.00;;
50709;SDS011;37033;49.994;21.992;2023-10-31T03:25:45;3.90;;;1.30;;
50709;SDS011;37033;49.994;21.992;2023-10-31T03:28:19;2.20;;;1.50;;
50709;SDS011;37033;49.994;21.992;2023-10-31T03:30:52;7.40;;;1.30;;
50709;SDS011;37033;49.994;21.992;2023-10-31T03:33:22;3.60;;;1.50;;
50709;SDS011;37033;49.994;21.992;2023-10-31T03:35:54;4.70;;;1.40;;
50709;SDS011;37033;49.994;21.992;2023-10-31T03:38:24;4.50;;;1.30;;
50709;SDS011;37033;49.994;21.992;2023-10-31T03:40:55;2.30;;;1.00;;
50709;SDS011;37033;49.994;21.992;2023-10-31T03:43:26;3.60;;;1.60;;
50709;SDS011;37033;49.994;21.992;2023-10-31T03:45:57;2.00;;;1.00;;
50709;SDS011;37033;49.994;21.992;2023-10-31T03:48:28;1.90;;;1.10;;
50709;SDS011;37033;49.994;21.992;2023-10-31T03:50:59;2.50;;;1.30;;
50709;SDS011;37033;49.994;21.992;2023-10-31T03:53:29;1.20;;;0.80;;
50709;SDS011;37033;49.994;21.992;2023-10-31T03:56:00;4.10;;;1.20;;
50709;SDS011;37033;49.994;21.992;2023-10-31T03:58:32;2.40;;;1.50;;
50709;SDS011;37033;49.994;21.992;2023-10-31T04:01:03;3.50;;;1.40;;
50709;SDS011;37033;49.994;21.992;2023-10-31T04:03:34;2.20;;;1.40;;
50709;SDS011;37033;49.994;21.992;2023-10-31T04:06:06;3.20;;;1.20;;
50709;SDS011;37033;49.994;21.992;2023-10-31T04:08:37;1.70;;;1.10;;
50709;SDS011;37033;49.994;21.992;2023-10-31T04:11:09;1.90;;;1.20;;
50709;SDS011;37033;49.994;21.992;2023-10-31T04:13:39;4.40;;;1.50;;
50709;SDS011;37033;49.994;21.992;2023-10-31T04:16:10;2.40;;;1.20;;
50709;SDS011;37033;49.994;21.992;2023-10-31T04:18:41;3.20;;;1.50;;
50709;SDS011;37033;49.994;21.992;2023-10-31T04:21:12;2.20;;;1.30;;
50709;SDS011;37033;49.994;21.992;2023-10-31T04:23:43;2.90;;;1.30;;
50709;SDS011;37033;49.994;21.992;2023-10-31T04:26:14;2.70;;;1.30;;
50709;SDS011;37033;49.994;21.992;2023-10-31T04:28:45;2.00;;;1.10;;
50709;SDS011;37033;49.994;21.992;2023-10-31T04:31:15;3.40;;;1.40;;
50709;SDS011;37033;49.994;21.992;2023-10-31T04:33:46;2.60;;;1.40;;
50709;SDS011;37033;49.994;21.992;2023-10-31T04:36:17;3.40;;;1.50;;
50709;SDS011;37033;49.994;21.992;2023-10-31T04:38:48;5.50;;;1.20;;
50709;SDS011;37033;49.994;21.992;2023-10-31T04:41:20;2.70;;;1.40;;
50709;SDS011;37033;49.994;21.992;2023-10-31T04:43:50;2.80;;;1.60;;
50709;SDS011;37033;49.994;21.992;2023-10-31T04:46:21;3.50;;;1.40;;
50709;SDS011;37033;49.994;21.992;2023-10-31T04:48:54;2.10;;;1.20;;
50709;SDS011;37033;49.994;21.992;2023-10-31T04:51:25;3.20;;;2.20;;
50709;SDS011;37033;49.994;21.992;2023-10-31T04:53:56;2.90;;;1.20;;
50709;SDS011;37033;49.994;21.992;2023-10-31T04:56:27;4.40;;;1.40;;
50709;SDS011;37033;49.994;21.992;2023-10-31T04:58:58;5.20;;;1.50;;
50709;SDS011;37033;49.994;21.992;2023-10-31T05:01:29;3.40;;;1.50;;
50709;SDS011;37033;49.994;21.992;2023-10-31T05:04:00;2.40;;;1.50;;
50709;SDS011;37033;49.994;21.992;2023-10-31T05:06:31;3.90;;;1.30;;
50709;SDS011;37033;49.994;21.992;2023-10-31T05:09:02;4.50;;;1.90;;
50709;SDS011;37033;49.994;21.992;2023-10-31T05:11:33;3.90;;;1.50;;
50709;SDS011;37033;49.994;21.992;2023-10-31T05:14:04;4.20;;;1.60;;
50709;SDS011;37033;49.994;21.992;2023-10-31T05:16:45;3.00;;;1.30;;
50709;SDS011;37033;49.994;21.992;2023-10-31T05:19:16;2.30;;;1.20;;
50709;SDS011;37033;49.994;21.992;2023-10-31T05:21:47;3.90;;;1.20;;
50709;SDS011;37033;49.994;21.992;2023-10-31T05:24:18;4.40;;;1.40;;
50709;SDS011;37033;49.994;21.992;2023-10-31T05:26:49;6.10;;;1.30;;
50709;SDS011;37033;49.994;21.992;2023-10-31T05:29:20;3.70;;;1.10;;
50709;SDS011;37033;49.994;21.992;2023-10-31T05:31:51;10.60;;;1.30;;
50709;SDS011;37033;49.994;21.992;2023-10-31T05:34:21;3.70;;;1.40;;
50709;SDS011;37033;49.994;21.992;2023-10-31T05:36:52;1.80;;;1.20;;
50709;SDS011;37033;49.994;21.992;2023-10-31T05:39:23;2.10;;;1.20;;
50709;SDS011;37033;49.994;21.992;2023-10-31T05:41:54;2.00;;;1.40;;
50709;SDS011;37033;49.994;21.992;2023-10-31T05:44:25;2.70;;;1.30;;
50709;SDS011;37033;49.994;21.992;2023-10-31T05:46:56;4.20;;;1.40;;
50709;SDS011;37033;49.994;21.992;2023-10-31T05:49:27;2.00;;;1.10;;
50709;SDS011;37033;49.994;21.992;2023-10-31T05:51:58;2.60;;;1.10;;
50709;SDS011;37033;49.994;21.992;2023-10-31T05:54:28;3.10;;;1.00;;
50709;SDS011;37033;49.994;21.992;2023-10-31T05:56:59;3.00;;;1.30;;
50709;SDS011;37033;49.994;21.992;2023-10-31T05:59:30;3.60;;;1.20;;
50709;SDS011;37033;49.994;21.992;2023-10-31T06:02:01;4.00;;;1.20;;
50709;SDS011;37033;49.994;21.992;2023-10-31T06:04:32;3.90;;;1.10;;
50709;SDS011;37033;49.994;21.992;2023-10-31T06:07:03;4.40;;;1.50;;
50709;SDS011;37033;49.994;21.992;2023-10-31T06:09:34;2.30;;;1.20;;
50709;SDS011;37033;49.994;21.992;2023-10-31T06:12:05;2.10;;;1.00;;
50709;SDS011;37033;49.994;21.992;2023-10-31T06:14:36;2.50;;;1.10;;
50709;SDS011;37033;49.994;21.992;2023-10-31T06:17:07;3.50;;;1.30;;
50709;SDS011;37033;49.994;21.992;2023-10-31T06:19:38;3.00;;;0.90;;
50709;SDS011;37033;49.994;21.992;2023-10-31T06:22:13;1.80;;;1.10;;
50709;SDS011;37033;49.994;21.992;2023-10-31T06:24:44;3.40;;;1.30;;
50709;SDS011;37033;49.994;21.992;2023-10-31T06:27:14;2.20;;;1.30;;
50709;SDS011;37033;49.994;21.992;2023-10-31T06:29:45;3.00;;;1.40;;
50709;SDS011;37033;49.994;21.992;2023-10-31T06:32:16;3.50;;;1.30;;
50709;SDS011;37033;49.994;21.992;2023-10-31T06:34:47;3.80;;;1.10;;
50709;SDS011;37033;49.994;21.992;2023-10-31T06:37:17;3.60;;;1.40;;
50709;SDS011;37033;49.994;21.992;2023-10-31T06:39:48;3.60;;;1.20;;
50709;SDS011;37033;49.994;21.992;2023-10-31T06:42:19;3.20;;;1.70;;
50709;SDS011;37033;49.994;21.992;2023-10-31T06:44:50;2.60;;;1.30;;
50709;SDS011;37033;49.994;21.992;2023-10-31T06:47:21;4.10;;;1.40;;
50709;SDS011;37033;49.994;21.992;2023-10-31T06:49:52;7.30;;;1.40;;
50709;SDS011;37033;49.994;21.992;2023-10-31T06:52:23;3.50;;;0.90;;
50709;SDS011;37033;49.994;21.992;2023-10-31T06:54:54;3.10;;;1.50;;
50709;SDS011;37033;49.994;21.992;2023-10-31T06:57:24;3.40;;;1.40;;
50709;SDS011;37033;49.994;21.992;2023-10-31T06:59:55;4.90;;;1.60;;
50709;SDS011;37033;49.994;21.992;2023-10-31T07:02:26;6.90;;;1.20;;
50709;SDS011;37033;49.994;21.992;2023-10-31T07:04:57;2.60;;;1.20;;
50709;SDS011;37033;49.994;21.992;2023-10-31T07:07:28;2.70;;;1.10;;
50709;SDS011;37033;49.994;21.992;2023-10-31T07:09:58;1.80;;;1.20;;
50709;SDS011;37033;49.994;21.992;2023-10-31T07:12:29;5.40;;;1.60;;
50709;SDS011;37033;49.994;21.992;2023-10-31T07:15:01;5.10;;;1.20;;
50709;SDS011;37033;49.994;21.992;2023-10-31T07:20:04;1.50;;;1.00;;
50709;SDS011;37033;49.994;21.992;2023-10-31T07:22:37;4.50;;;1.50;;
50709;SDS011;37033;49.994;21.992;2023-10-31T07:25:09;5.50;;;1.30;;
50709;SDS011;37033;49.994;21.992;2023-10-31T07:27:40;4.50;;;1.30;;
50709;SDS011;37033;49.994;21.992;2023-10-31T07:30:12;3.30;;;1.60;;
50709;SDS011;37033;49.994;21.992;2023-10-31T07:32:43;1.70;;;1.20;;
50709;SDS011;37033;49.994;21.992;2023-10-31T07:35:14;2.50;;;1.20;;
50709;SDS011;37033;49.994;21.992;2023-10-31T07:37:47;3.10;;;1.30;;
50709;SDS011;37033;49.994;21.992;2023-10-31T07:40:18;4.50;;;1.40;;
50709;SDS011;37033;49.994;21.992;2023-10-31T07:42:49;3.70;;;1.30;;
50709;SDS011;37033;49.994;21.992;2023-10-31T07:45:20;2.00;;;1.00;;
50709;SDS011;37033;49.994;21.992;2023-10-31T07:47:51;6.00;;;2.00;;
50709;SDS011;37033;49.994;21.992;2023-10-31T07:50:22;3.10;;;1.20;;
50709;SDS011;37033;49.994;21.992;2023-10-31T07:52:52;3.00;;;1.30;;
50709;SDS011;37033;49.994;21.992;2023-10-31T07:55:23;4.20;;;1.70;;
50709;SDS011;37033;49.994;21.992;2023-10-31T07:57:54;4.50;;;1.40;;
50709;SDS011;37033;49.994;21.992;2023-10-31T08:00:25;5.00;;;1.50;;
50709;SDS011;37033;49.994;21.992;2023-10-31T08:02:56;3.10;;;1.40;;
50709;SDS011;37033;49.994;21.992;2023-10-31T08:05:26;3.60;;;1.50;;
50709;SDS011;37033;49.994;21.992;2023-10-31T08:07:57;2.20;;;1.00;;
50709;SDS011;37033;49.994;21.992;2023-10-31T08:10:28;3.10;;;1.40;;
50709;SDS011;37033;49.994;21.992;2023-10-31T08:12:59;4.70;;;1.50;;
50709;SDS011;37033;49.994;21.992;2023-10-31T08:15:29;2.20;;;1.40;;
50709;SDS011;37033;49.994;21.992;2023-10-31T08:18:00;2.10;;;1.40;;
50709;SDS011;37033;49.994;21.992;2023-10-31T08:20:31;4.30;;;1.60;;
50709;SDS011;37033;49.994;21.992;2023-10-31T08:23:03;1.90;;;1.20;;
50709;SDS011;37033;49.994;21.992;2023-10-31T08:25:34;5.10;;;1.40;;
50709;SDS011;37033;49.994;21.992;2023-10-31T08:28:05;5.10;;;1.80;;
50709;SDS011;37033;49.994;21.992;2023-10-31T08:30:36;3.30;;;1.50;;
50709;SDS011;37033;49.994;21.992;2023-10-31T08:33:07;2.50;;;1.60;;
50709;SDS011;37033;49.994;21.992;2023-10-31T08:35:38;3.30;;;1.50;;
50709;SDS011;37033;49.994;21.992;2023-10-31T08:38:09;2.80;;;1.30;;
50709;SDS011;37033;49.994;21.992;2023-10-31T08:40:40;3.10;;;1.60;;
50709;SDS011;37033;49.994;21.992;2023-10-31T08:43:10;2.20;;;1.40;;
50709;SDS011;37033;49.994;21.992;2023-10-31T08:45:41;2.60;;;1.30;;
50709;SDS011;37033;49.994;21.992;2023-10-31T08:48:12;4.90;;;1.60;;
50709;SDS011;37033;49.994;21.992;2023-10-31T08:50:43;2.90;;;1.10;;
50709;SDS011;37033;49.994;21.992;2023-10-31T08:53:14;3.80;;;1.40;;
50709;SDS011;37033;49.994;21.992;2023-10-31T08:55:46;4.00;;;1.30;;
50709;SDS011;37033;49.994;21.992;2023-10-31T08:58:17;3.70;;;1.40;;
50709;SDS011;37033;49.994;21.992;2023-10-31T09:00:48;2.80;;;1.70;;
50709;SDS011;37033;49.994;21.992;2023-10-31T09:03:19;3.80;;;1.40;;
50709;SDS011;37033;49.994;21.992;2023-10-31T09:05:50;2.50;;;1.10;;
50709;SDS011;37033;49.994;21.992;2023-10-31T09:08:21;2.20;;;1.40;;
50709;SDS011;37033;49.994;21.992;2023-10-31T09:10:52;5.90;;;2.00;;
50709;SDS011;37033;49.994;21.992;2023-10-31T09:13:23;7.90;;;1.80;;
50709;SDS011;37033;49.994;21.992;2023-10-31T09:15:54;3.30;;;1.30;;
50709;SDS011;37033;49.994;21.992;2023-10-31T09:18:25;3.20;;;1.50;;
50709;SDS011;37033;49.994;21.992;2023-10-31T09:20:56;3.30;;;1.50;;
50709;SDS011;37033;49.994;21.992;2023-10-31T09:23:27;4.50;;;2.10;;
50709;SDS011;37033;49.994;21.992;2023-10-31T09:25:59;5.20;;;1.70;;
50709;SDS011;37033;49.994;21.992;2023-10-31T09:28:30;4.40;;;2.60;;
50709;SDS011;37033;49.994;21.992;2023-10-31T09:31:01;4.80;;;2.00;;
50709;SDS011;37033;49.994;21.992;2023-10-31T09:33:32;5.60;;;1.80;;
50709;SDS011;37033;49.994;21.992;2023-10-31T09:36:04;5.00;;;1.80;;
50709;SDS011;37033;49.994;21.992;2023-10-31T09:38:36;5.60;;;1.80;;
50709;SDS011;37033;49.994;21.992;2023-10-31T09:41:07;2.50;;;1.10;;
50709;SDS011;37033;49.994;21.992;2023-10-31T09:43:39;2.60;;;1.20;;
50709;SDS011;37033;49.994;21.992;2023-10-31T09:46:10;6.10;;;1.20;;
50709;SDS011;37033;49.994;21.992;2023-10-31T09:48:41;4.80;;;1.40;;
50709;SDS011;37033;49.994;21.992;2023-10-31T09:51:12;2.10;;;1.10;;
50709;SDS011;37033;49.994;21.992;2023-10-31T09:53:44;3.00;;;1.50;;
50709;SDS011;37033;49.994;21.992;2023-10-31T09:56:16;1.80;;;1.00;;
50709;SDS011;37033;49.994;21.992;2023-10-31T09:58:47;3.00;;;1.30;;
50709;SDS011;37033;49.994;21.992;2023-10-31T10:01:18;4.90;;;1.30;;
50709;SDS011;37033;49.994;21.992;2023-10-31T10:03:49;4.20;;;1.30;;
50709;SDS011;37033;49.994;21.992;2023-10-31T10:06:21;1.90;;;1.10;;
50709;SDS011;37033;49.994;21.992;2023-10-31T10:08:52;6.00;;;1.60;;
50709;SDS011;37033;49.994;21.992;2023-10-31T10:11:24;4.40;;;1.40;;
50709;SDS011;37033;49.994;21.992;2023-10-31T10:13:56;2.30;;;1.30;;
50709;SDS011;37033;49.994;21.992;2023-10-31T10:16:31;5.30;;;1.60;;
50709;SDS011;37033;49.994;21.992;2023-10-31T10:19:15;3.90;;;1.20;;
50709;SDS011;37033;49.994;21.992;2023-10-31T10:21:49;5.50;;;1.50;;
50709;SDS011;37033;49.994;21.992;2023-10-31T10:24:21;4.50;;;1.40;;
50709;SDS011;37033;49.994;21.992;2023-10-31T10:26:52;3.50;;;1.20;;
50709;SDS011;37033;49.994;21.992;2023-10-31T10:29:23;2.10;;;1.30;;
50709;SDS011;37033;49.994;21.992;2023-10-31T10:31:54;3.30;;;1.30;;
50709;SDS011;37033;49.994;21.992;2023-10-31T10:34:26;4.30;;;1.50;;
50709;SDS011;37033;49.994;21.992;2023-10-31T10:36:56;3.90;;;1.50;;
50709;SDS011;37033;49.994;21.992;2023-10-31T10:39:30;2.40;;;1.90;;
50709;SDS011;37033;49.994;21.992;2023-10-31T10:42:05;5.40;;;1.30;;
50709;SDS011;37033;49.994;21.992;2023-10-31T10:44:42;2.50;;;1.60;;
50709;SDS011;37033;49.994;21.992;2023-10-31T10:47:15;3.10;;;1.60;;
50709;SDS011;37033;49.994;21.992;2023-10-31T10:49:48;2.80;;;1.30;;
50709;SDS011;37033;49.994;21.992;2023-10-31T10:52:26;4.30;;;1.60;;
50709;SDS011;37033;49.994;21.992;2023-10-31T10:55:03;9.30;;;1.70;;
50709;SDS011;37033;49.994;21.992;2023-10-31T10:57:42;4.90;;;1.50;;
50709;SDS011;37033;49.994;21.992;2023-10-31T11:00:19;5.90;;;1.60;;
50709;SDS011;37033;49.994;21.992;2023-10-31T11:02:52;6.50;;;1.80;;
50709;SDS011;37033;49.994;21.992;2023-10-31T11:05:25;4.10;;;1.50;;
50709;SDS011;37033;49.994;21.992;2023-10-31T11:07:56;3.90;;;1.50;;
50709;SDS011;37033;49.994;21.992;2023-10-31T11:10:29;2.30;;;1.40;;
50709;SDS011;37033;49.994;21.992;2023-10-31T11:13:00;2.40;;;1.50;;
50709;SDS011;37033;49.994;21.992;2023-10-31T11:15:31;3.80;;;1.40;;
50709;SDS011;37033;49.994;21.992;2023-10-31T11:18:03;3.50;;;1.90;;
50709;SDS011;37033;49.994;21.992;2023-10-31T11:20:35;4.70;;;1.70;;
50709;SDS011;37033;49.994;21.992;2023-10-31T11:23:08;3.90;;;1.20;;
50709;SDS011;37033;49.994;21.992;2023-10-31T11:25:41;4.00;;;1.60;;
50709;SDS011;37033;49.994;21.992;2023-10-31T11:28:13;3.20;;;1.20;;
50709;SDS011;37033;49.994;21.992;2023-10-31T11:30:47;2.10;;;1.40;;
50709;SDS011;37033;49.994;21.992;2023-10-31T11:33:20;2.90;;;1.40;;
50709;SDS011;37033;49.994;21.992;2023-10-31T11:35:52;2.40;;;1.20;;
50709;SDS011;37033;49.994;21.992;2023-10-31T11:38:33;6.40;;;1.60;;
50709;SDS011;37033;49.994;21.992;2023-10-31T11:41:05;4.20;;;1.80;;
50709;SDS011;37033;49.994;21.992;2023-10-31T11:46:24;7.70;;;1.50;;
50709;SDS011;37033;49.994;21.992;2023-10-31T11:48:56;3.50;;;2.30;;
50709;SDS011;37033;49.994;21.992;2023-10-31T11:51:29;4.10;;;1.20;;
50709;SDS011;37033;49.994;21.992;2023-10-31T11:54:00;2.20;;;1.40;;
50709;SDS011;37033;49.994;21.992;2023-10-31T11:56:36;2.10;;;1.30;;
50709;SDS011;37033;49.994;21.992;2023-10-31T11:59:07;2.20;;;1.20;;
50709;SDS011;37033;49.994;21.992;2023-10-31T12:01:45;2.50;;;1.50;;
50709;SDS011;37033;49.994;21.992;2023-10-31T12:04:22;5.50;;;1.50;;
50709;SDS011;37033;49.994;21.992;2023-10-31T12:07:00;4.70;;;1.20;;
50709;SDS011;37033;49.994;21.992;2023-10-31T12:09:31;3.00;;;1.20;;
50709;SDS011;37033;49.994;21.992;2023-10-31T12:12:14;3.50;;;1.10;;
50709;SDS011;37033;49.994;21.992;2023-10-31T12:14:45;4.20;;;1.10;;
50709;SDS011;37033;49.994;21.992;2023-10-31T12:17:16;2.10;;;1.30;;
50709;SDS011;37033;49.994;21.992;2023-10-31T12:19:47;2.60;;;1.10;;
50709;SDS011;37033;49.994;21.992;2023-10-31T12:22:23;4.50;;;1.80;;
50709;SDS011;37033;49.994;21.992;2023-10-31T12:25:01;5.00;;;1.10;;
50709;SDS011;37033;49.994;21.992;2023-10-31T12:27:45;2.20;;;1.20;;
50709;SDS011;37033;49.994;21.992;2023-10-31T12:30:17;2.50;;;1.20;;
50709;SDS011;37033;49.994;21.992;2023-10-31T12:32:55;3.10;;;1.00;;
50709;SDS011;37033;49.994;21.992;2023-10-31T12:35:26;6.10;;;1.80;;
50709;SDS011;37033;49.994;21.992;2023-10-31T12:37:57;2.10;;;1.10;;
50709;SDS011;37033;49.994;21.992;2023-10-31T12:40:28;5.60;;;1.70;;
50709;SDS011;37033;49.994;21.992;2023-10-31T12:43:00;3.30;;;1.20;;
50709;SDS011;37033;49.994;21.992;2023-10-31T12:45:31;4.90;;;1.60;;
50709;SDS011;37033;49.994;21.992;2023-10-31T12:48:03;6.30;;;1.70;;
50709;SDS011;37033;49.994;21.992;2023-10-31T12:50:35;4.40;;;2.20;;
50709;SDS011;37033;49.994;21.992;2023-10-31T12:53:08;16.40;;;10.90;;
50709;SDS011;37033;49.994;21.992;2023-10-31T12:55:40;14.90;;;6.10;;
50709;SDS011;37033;49.994;21.992;2023-10-31T12:58:18;15.10;;;6.70;;
50709;SDS011;37033;49.994;21.992;2023-10-31T13:00:51;45.40;;;17.50;;
50709;SDS011;37033;49.994;21.992;2023-10-31T13:03:23;29.50;;;11.20;;
50709;SDS011;37033;49.994;21.992;2023-10-31T13:05:54;12.80;;;6.90;;
50709;SDS011;37033;49.994;21.992;2023-10-31T13:08:25;5.60;;;2.80;;
50709;SDS011;37033;49.994;21.992;2023-10-31T13:10:58;4.00;;;1.80;;
50709;SDS011;37033;49.994;21.992;2023-10-31T13:13:29;9.70;;;4.10;;
50709;SDS011;37033;49.994;21.992;2023-10-31T13:16:00;9.90;;;6.20;;
50709;SDS011;37033;49.994;21.992;2023-10-31T13:18:31;6.90;;;3.60;;
50709;SDS011;37033;49.994;21.992;2023-10-31T13:21:04;10.60;;;6.10;;
50709;SDS011;37033;49.994;21.992;2023-10-31T13:23:36;5.60;;;2.80;;
50709;SDS011;37033;49.994;21.992;2023-10-31T13:26:07;7.40;;;3.40;;
50709;SDS011;37033;49.994;21.992;2023-10-31T13:28:39;11.00;;;5.70;;
50709;SDS011;37033;49.994;21.992;2023-10-31T13:31:10;18.80;;;7.50;;
50709;SDS011;37033;49.994;21.992;2023-10-31T13:33:42;4.50;;;2.50;;
50709;SDS011;37033;49.994;21.992;2023-10-31T13:36:14;5.50;;;2.40;;
50709;SDS011;37033;49.994;21.992;2023-10-31T13:38:46;4.50;;;1.80;;
50709;SDS011;37033;49.994;21.992;2023-10-31T13:41:18;4.90;;;3.00;;
50709;SDS011;37033;49.994;21.992;2023-10-31T13:43:49;3.60;;;1.90;;
50709;SDS011;37033;49.994;21.992;2023-10-31T13:46:20;5.00;;;2.40;;
50709;SDS011;37033;49.994;21.992;2023-10-31T13:48:51;5.50;;;1.60;;
50709;SDS011;37033;49.994;21.992;2023-10-31T13:51:22;7.30;;;2.80;;
50709;SDS011;37033;49.994;21.992;2023-10-31T13:53:53;6.00;;;3.30;;
50709;SDS011;37033;49.994;21.992;2023-10-31T13:56:24;4.50;;;1.70;;
50709;SDS011;37033;49.994;21.992;2023-10-31T13:58:55;3.00;;;1.60;;
50709;SDS011;37033;49.994;21.992;2023-10-31T14:01:26;4.20;;;2.00;;
50709;SDS011;37033;49.994;21.992;2023-10-31T14:03:57;7.90;;;2.40;;
50709;SDS011;37033;49.994;21.992;2023-10-31T14:06:28;6.40;;;2.70;;
50709;SDS011;37033;49.994;21.992;2023-10-31T14:09:00;4.70;;;2.70;;
50709;SDS011;37033;49.994;21.992;2023-10-31T14:11:32;5.30;;;2.50;;
50709;SDS011;37033;49.994;21.992;2023-10-31T14:14:04;17.00;;;8.10;;
50709;SDS011;37033;49.994;21.992;2023-10-31T14:16:37;14.10;;;6.30;;
50709;SDS011;37033;49.994;21.992;2023-10-31T14:19:08;12.30;;;5.90;;
50709;SDS011;37033;49.994;21.992;2023-10-31T14:21:39;5.00;;;3.30;;
50709;SDS011;37033;49.994;21.992;2023-10-31T14:24:10;5.20;;;3.40;;
50709;SDS011;37033;49.994;21.992;2023-10-31T14:26:41;10.00;;;3.10;;
50709;SDS011;37033;49.994;21.992;2023-10-31T14:29:12;5.30;;;2.90;;
50709;SDS011;37033;49.994;21.992;2023-10-31T14:31:43;5.40;;;3.00;;
50709;SDS011;37033;49.994;21.992;2023-10-31T14:34:14;6.70;;;2.90;;
50709;SDS011;37033;49.994;21.992;2023-10-31T14:36:45;8.70;;;3.00;;
50709;SDS011;37033;49.994;21.992;2023-10-31T14:39:17;15.30;;;3.20;;
50709;SDS011;37033;49.994;21.992;2023-10-31T14:41:48;9.40;;;3.10;;
50709;SDS011;37033;49.994;21.992;2023-10-31T14:44:19;6.60;;;2.60;;
50709;SDS011;37033;49.994;21.992;2023-10-31T14:46:50;5.20;;;2.60;;
50709;SDS011;37033;49.994;21.992;2023-10-31T14:49:21;9.10;;;3.00;;
50709;SDS011;37033;49.994;21.992;2023-10-31T14:51:52;5.80;;;2.80;;
50709;SDS011;37033;49.994;21.992;2023-10-31T14:54:23;4.30;;;2.20;;
50709;SDS011;37033;49.994;21.992;2023-10-31T14:56:54;4.50;;;1.90;;
50709;SDS011;37033;49.994;21.992;2023-10-31T14:59:25;4.40;;;2.30;;
50709;SDS011;37033;49.994;21.992;2023-10-31T15:01:56;4.70;;;3.20;;
50709;SDS011;37033;49.994;21.992;2023-10-31T15:04:27;6.50;;;2.80;;